createdAt,value
2023-01-13T00:01:14.031Z,10.07
2023-01-13T00:03:42.114Z,10.10
2023-01-13T00:06:10.490Z,6.85
2023-01-13T00:08:37.786Z,6.28
2023-01-13T00:11:05.186Z,5.78
2023-01-13T00:13:35.184Z,5.32
2023-01-13T00:16:17.587Z,9.40
2023-01-13T00:18:45.463Z,6.90
2023-01-13T00:21:14.576Z,5.43
2023-01-13T00:23:42.281Z,6.97
2023-01-13T00:26:11.356Z,4.45
2023-01-13T00:28:38.936Z,3.20
2023-01-13T00:31:07.182Z,3.58
2023-01-13T00:33:34.681Z,4.70
2023-01-13T00:36:02.548Z,3.50
2023-01-13T00:38:31.238Z,4.50
2023-01-13T00:40:59.374Z,2.88
2023-01-13T00:43:27.404Z,2.50
2023-01-13T00:45:55.228Z,2.75
2023-01-13T00:48:23.703Z,2.50
2023-01-13T00:51:01.403Z,2.60
2023-01-13T00:53:29.414Z,2.50
2023-01-13T00:56:03.341Z,4.30
2023-01-13T00:58:32.050Z,3.42
2023-01-13T01:01:03.171Z,2.65
2023-01-13T01:03:31.061Z,3.83
2023-01-13T01:05:58.979Z,2.20
2023-01-13T01:08:26.304Z,1.85
2023-01-13T01:11:01.238Z,2.45
2023-01-13T01:13:29.098Z,3.80
2023-01-13T01:15:56.527Z,2.25
2023-01-13T01:18:24.243Z,2.95
2023-01-13T01:20:51.528Z,3.25
2023-01-13T01:23:18.881Z,4.97
2023-01-13T01:25:46.405Z,2.72
2023-01-13T01:28:13.857Z,2.70
2023-01-13T01:30:41.130Z,2.50
2023-01-13T01:33:08.453Z,2.55
2023-01-13T01:35:39.672Z,2.38
2023-01-13T01:38:07.052Z,2.15
2023-01-13T01:40:34.386Z,5.97
2023-01-13T01:43:20.281Z,2.28
2023-01-13T01:45:47.677Z,2.92
2023-01-13T01:48:15.003Z,2.30
2023-01-13T01:50:42.249Z,4.90
2023-01-13T01:53:12.384Z,3.75
2023-01-13T01:55:40.244Z,3.00
2023-01-13T01:58:13.403Z,2.70
2023-01-13T02:00:40.842Z,2.30
2023-01-13T02:03:09.370Z,3.50
2023-01-13T02:05:37.015Z,2.20
2023-01-13T02:08:04.749Z,1.85
2023-01-13T02:10:32.550Z,2.83
2023-01-13T02:13:01.669Z,3.25
2023-01-13T02:15:41.211Z,3.50
2023-01-13T02:18:32.425Z,2.20
2023-01-13T02:21:19.997Z,5.35
2023-01-13T02:24:26.345Z,2.28
2023-01-13T02:26:56.509Z,3.00
2023-01-13T02:30:00.751Z,2.63
2023-01-13T02:32:36.025Z,2.17
2023-01-13T02:35:25.484Z,2.20
2023-01-13T02:37:54.203Z,2.78
2023-01-13T02:40:21.517Z,2.63
2023-01-13T02:43:11.107Z,3.40
2023-01-13T02:45:40.517Z,2.00
2023-01-13T02:48:09.561Z,2.40
2023-01-13T02:50:39.827Z,2.25
2023-01-13T02:53:25.920Z,1.77
2023-01-13T02:55:54.801Z,3.03
2023-01-13T02:58:24.982Z,3.03
2023-01-13T03:00:52.472Z,1.83
2023-01-13T03:03:19.985Z,4.13
2023-01-13T03:05:48.454Z,3.72
2023-01-13T03:08:21.560Z,2.25
2023-01-13T03:11:08.175Z,2.80
2023-01-13T03:13:35.664Z,1.75
2023-01-13T03:16:09.247Z,2.13
2023-01-13T03:18:43.009Z,2.92
2023-01-13T03:21:14.792Z,2.47
2023-01-13T03:23:48.428Z,2.22
2023-01-13T03:26:17.429Z,1.90
2023-01-13T03:28:47.644Z,1.90
2023-01-13T03:31:16.627Z,3.08
2023-01-13T03:33:51.362Z,4.32
2023-01-13T03:36:22.835Z,2.05
2023-01-13T03:38:55.567Z,3.15
2023-01-13T03:41:25.767Z,3.53
2023-01-13T03:44:15.057Z,1.70
2023-01-13T03:46:45.283Z,1.90
2023-01-13T03:49:14.614Z,2.45
2023-01-13T03:51:43.809Z,2.17
2023-01-13T03:54:12.392Z,2.15
2023-01-13T03:56:46.109Z,2.10
2023-01-13T03:59:17.194Z,3.35
2023-01-13T04:02:00.198Z,2.30
2023-01-13T04:04:31.712Z,6.88
2023-01-13T04:07:04.772Z,4.68
2023-01-13T04:09:46.853Z,2.30
2023-01-13T04:12:49.783Z,1.83
2023-01-13T04:15:22.357Z,2.38
2023-01-13T04:17:50.544Z,3.00
2023-01-13T04:20:18.016Z,2.20
2023-01-13T04:22:45.299Z,3.17
2023-01-13T04:25:12.707Z,2.67
2023-01-13T04:27:40.046Z,2.60
2023-01-13T04:30:07.757Z,1.60
2023-01-13T04:32:35.105Z,2.90
2023-01-13T04:35:02.447Z,2.92
2023-01-13T04:37:30.164Z,3.45
2023-01-13T04:39:58.470Z,2.20
2023-01-13T04:42:25.814Z,4.65
2023-01-13T04:44:53.174Z,1.98
2023-01-13T04:47:20.625Z,2.15
2023-01-13T04:49:47.965Z,1.58
2023-01-13T04:52:15.294Z,2.78
2023-01-13T04:54:42.679Z,1.40
2023-01-13T04:57:10.037Z,2.70
2023-01-13T04:59:37.421Z,1.83
2023-01-13T05:02:04.841Z,1.58
2023-01-13T05:04:32.296Z,2.63
2023-01-13T05:06:59.747Z,1.80
2023-01-13T05:09:27.154Z,1.55
2023-01-13T05:12:13.455Z,2.60
2023-01-13T05:15:00.994Z,2.80
2023-01-13T05:17:29.393Z,2.10
2023-01-13T05:19:56.672Z,2.05
2023-01-13T05:22:42.803Z,2.88
2023-01-13T05:25:24.931Z,1.98
2023-01-13T05:27:54.329Z,4.38
2023-01-13T05:30:26.185Z,3.05
2023-01-13T05:32:53.823Z,4.32
2023-01-13T05:35:21.274Z,3.63
2023-01-13T05:37:49.039Z,3.15
2023-01-13T05:40:36.229Z,10.73
2023-01-13T05:43:21.942Z,7.80
2023-01-13T05:46:04.704Z,3.30
2023-01-13T05:48:35.247Z,2.50
2023-01-13T05:51:03.277Z,2.38
2023-01-13T05:53:32.093Z,3.38
2023-01-13T05:56:00.225Z,3.42
2023-01-13T05:58:28.226Z,2.25
2023-01-13T06:01:00.240Z,2.00
2023-01-13T06:03:27.733Z,1.45
2023-01-13T06:06:01.782Z,3.67
2023-01-13T06:08:29.504Z,3.05
2023-01-13T06:10:57.059Z,2.38
2023-01-13T06:13:25.507Z,3.67
2023-01-13T06:15:56.568Z,3.63
2023-01-13T06:18:24.451Z,2.80
2023-01-13T06:20:58.579Z,7.13
2023-01-13T06:23:26.038Z,3.67
2023-01-13T06:26:00.055Z,3.97
2023-01-13T06:28:27.633Z,2.90
2023-01-13T06:30:57.269Z,1.70
2023-01-13T06:33:27.776Z,2.25
2023-01-13T06:35:57.664Z,3.35
2023-01-13T06:38:26.146Z,3.42
2023-01-13T06:40:53.962Z,2.03
2023-01-13T06:43:21.525Z,2.13
2023-01-13T06:45:51.145Z,2.33
2023-01-13T06:48:19.716Z,2.33
2023-01-13T06:50:47.374Z,2.40
2023-01-13T06:53:14.860Z,2.58
2023-01-13T06:55:42.336Z,3.00
2023-01-13T06:58:09.799Z,3.00
2023-01-13T07:00:37.335Z,3.35
2023-01-13T07:03:15.071Z,3.03
2023-01-13T07:05:43.531Z,3.47
2023-01-13T07:08:11.396Z,3.47
2023-01-13T07:10:39.093Z,2.88
2023-01-13T07:13:25.742Z,5.03
2023-01-13T07:15:54.113Z,2.92
2023-01-13T07:18:21.511Z,3.10
2023-01-13T07:21:00.132Z,9.85
2023-01-13T07:23:29.118Z,6.65
2023-01-13T07:25:57.108Z,2.03
2023-01-13T07:28:25.455Z,2.40
2023-01-13T07:30:52.860Z,2.90
2023-01-13T07:33:20.376Z,5.70
2023-01-13T07:35:48.413Z,3.45
2023-01-13T07:38:15.990Z,6.35
2023-01-13T07:40:43.276Z,3.20
2023-01-13T07:43:31.516Z,4.75
2023-01-13T07:45:59.807Z,2.13
2023-01-13T07:48:27.863Z,3.10
2023-01-13T07:50:55.625Z,5.57
2023-01-13T07:53:26.277Z,3.22
2023-01-13T07:55:58.056Z,2.35
2023-01-13T07:58:26.924Z,5.03
2023-01-13T08:00:55.216Z,2.53
2023-01-13T08:03:23.145Z,2.78
2023-01-13T08:05:50.807Z,4.25
2023-01-13T08:08:18.659Z,2.38
2023-01-13T08:10:46.106Z,7.55
2023-01-13T08:13:18.146Z,2.10
2023-01-13T08:15:45.995Z,3.67
2023-01-13T08:18:13.841Z,3.50
2023-01-13T08:20:41.454Z,4.65
2023-01-13T08:23:08.835Z,2.58
2023-01-13T08:25:36.291Z,3.33
2023-01-13T08:28:04.156Z,3.17
2023-01-13T08:30:31.578Z,4.63
2023-01-13T08:32:59.022Z,11.05
2023-01-13T08:35:26.391Z,3.10
2023-01-13T08:37:54.009Z,4.70
2023-01-13T08:40:22.272Z,2.70
2023-01-13T08:42:49.720Z,4.82
2023-01-13T08:45:17.171Z,2.72
2023-01-13T08:47:44.636Z,6.90
2023-01-13T08:50:12.559Z,3.75
2023-01-13T08:52:39.981Z,4.90
2023-01-13T08:55:07.698Z,6.07
2023-01-13T08:57:35.538Z,5.07
2023-01-13T09:00:03.199Z,3.10
2023-01-13T09:02:30.535Z,6.00
2023-01-13T09:04:57.971Z,4.30
2023-01-13T09:07:25.333Z,4.97
2023-01-13T09:09:52.799Z,2.67
2023-01-13T09:12:38.774Z,2.30
2023-01-13T09:15:06.478Z,5.80
2023-01-13T09:17:33.864Z,4.15
2023-01-13T09:20:01.500Z,5.93
2023-01-13T09:22:28.907Z,5.90
2023-01-13T09:24:56.618Z,5.20
2023-01-13T09:27:24.248Z,4.38
2023-01-13T09:29:51.730Z,4.68
2023-01-13T09:32:19.374Z,7.97
2023-01-13T09:35:02.536Z,6.65
2023-01-13T09:37:31.112Z,3.60
2023-01-13T09:39:58.549Z,4.07
2023-01-13T09:42:53.431Z,4.75
2023-01-13T09:45:34.679Z,3.28
2023-01-13T09:48:02.053Z,3.73
2023-01-13T09:50:29.971Z,5.35
2023-01-13T09:52:58.031Z,4.57
2023-01-13T09:55:32.701Z,3.72
2023-01-13T09:58:02.921Z,4.80
2023-01-13T10:00:36.492Z,3.13
2023-01-13T10:03:13.184Z,3.00
2023-01-13T10:05:46.429Z,3.50
2023-01-13T10:08:32.966Z,4.00
2023-01-13T10:11:21.906Z,3.88
2023-01-13T10:13:51.677Z,4.85
2023-01-13T10:16:28.352Z,3.22
2023-01-13T10:18:58.527Z,3.67
2023-01-13T10:21:35.004Z,5.10
2023-01-13T10:24:04.798Z,3.60
2023-01-13T10:26:35.257Z,3.85
2023-01-13T10:29:02.867Z,4.38
2023-01-13T10:31:30.273Z,4.47
2023-01-13T10:34:01.592Z,4.30
2023-01-13T10:36:28.987Z,3.50
2023-01-13T10:39:07.582Z,4.82
2023-01-13T10:41:36.141Z,5.18
2023-01-13T10:44:14.159Z,5.20
2023-01-13T10:46:52.518Z,7.85
2023-01-13T10:49:28.212Z,2.92
2023-01-13T10:51:55.794Z,3.38
2023-01-13T10:54:24.668Z,2.95
2023-01-13T10:57:11.995Z,5.75
2023-01-13T10:59:39.280Z,3.70
2023-01-13T11:02:24.419Z,4.40
2023-01-13T11:04:55.299Z,4.03
2023-01-13T11:07:36.681Z,3.55
2023-01-13T11:10:14.114Z,4.75
2023-01-13T11:13:08.701Z,6.65
2023-01-13T11:15:45.765Z,3.58
2023-01-13T11:18:16.074Z,3.30
2023-01-13T11:20:44.391Z,3.67
2023-01-13T11:23:15.991Z,2.92
2023-01-13T11:25:45.720Z,6.65
2023-01-13T11:28:36.389Z,3.17
2023-01-13T11:31:22.714Z,3.40
2023-01-13T11:34:01.542Z,3.05
2023-01-13T11:36:31.827Z,4.25
2023-01-13T11:39:02.505Z,2.95
2023-01-13T11:41:47.269Z,3.65
2023-01-13T11:44:21.872Z,3.83
2023-01-13T11:46:52.898Z,3.83
2023-01-13T11:49:31.822Z,3.97
2023-01-13T11:51:59.286Z,2.55
2023-01-13T11:54:48.511Z,2.95
2023-01-13T11:57:34.831Z,2.72
2023-01-13T12:00:11.201Z,1.52
2023-01-13T12:02:41.309Z,1.75
2023-01-13T12:05:19.832Z,1.95
2023-01-13T12:08:02.294Z,1.58
2023-01-13T12:10:48.278Z,3.00
2023-01-13T12:13:21.893Z,1.10
2023-01-13T12:15:52.282Z,1.60
2023-01-13T12:18:41.831Z,1.58
2023-01-13T12:21:20.734Z,0.93
2023-01-13T12:23:54.151Z,2.38
2023-01-13T12:26:22.351Z,1.58
2023-01-13T12:28:49.745Z,2.35
2023-01-13T12:31:19.089Z,2.83
2023-01-13T12:33:49.469Z,1.90
2023-01-13T12:36:32.918Z,2.03
2023-01-13T12:39:19.015Z,1.50
2023-01-13T12:42:14.818Z,1.65
2023-01-13T12:45:06.928Z,1.50
2023-01-13T12:47:44.001Z,2.08
2023-01-13T12:50:23.919Z,1.10
2023-01-13T12:52:52.485Z,3.28
2023-01-13T12:55:21.113Z,3.33
2023-01-13T12:57:59.385Z,2.83
2023-01-13T13:00:38.260Z,1.50
2023-01-13T13:03:12.172Z,1.55
2023-01-13T13:08:43.657Z,2.60
2023-01-13T13:11:32.707Z,3.10
2023-01-13T13:14:04.885Z,4.28
2023-01-13T13:16:33.538Z,4.30
2023-01-13T13:19:33.059Z,5.20
2023-01-13T13:22:32.956Z,6.45
2023-01-13T13:25:00.328Z,11.18
2023-01-13T13:27:30.594Z,13.50
2023-01-13T13:30:04.793Z,14.05
2023-01-13T13:32:44.677Z,14.40
2023-01-13T13:35:24.018Z,13.65
2023-01-13T13:38:35.205Z,7.10
2023-01-13T13:41:24.833Z,8.75
2023-01-13T13:44:10.931Z,11.23
2023-01-13T13:46:49.083Z,4.00
2023-01-13T13:49:20.513Z,5.70
2023-01-13T13:52:15.392Z,3.83
2023-01-13T13:54:44.916Z,4.13
2023-01-13T13:57:30.959Z,3.55
2023-01-13T13:59:59.160Z,1.30
2023-01-13T14:02:30.509Z,1.92
2023-01-13T14:05:16.785Z,2.65
2023-01-13T14:07:52.245Z,1.10
2023-01-13T14:10:21.700Z,1.30
2023-01-13T14:12:49.416Z,2.42
2023-01-13T14:15:26.897Z,0.98
2023-01-13T14:17:54.692Z,1.08
2023-01-13T14:20:22.151Z,1.75
2023-01-13T14:22:50.282Z,1.80
2023-01-13T14:25:37.087Z,1.42
2023-01-13T14:28:21.006Z,10.40
2023-01-13T14:30:49.847Z,3.75
2023-01-13T14:33:18.702Z,0.70
2023-01-13T14:36:08.689Z,1.10
2023-01-13T14:38:36.041Z,0.77
2023-01-13T14:41:22.626Z,1.17
2023-01-13T14:43:51.405Z,2.45
2023-01-13T14:46:22.204Z,5.55
2023-01-13T14:48:51.035Z,3.03
2023-01-13T14:51:23.157Z,3.40
2023-01-13T14:53:50.761Z,1.00
2023-01-13T14:56:36.701Z,3.08
2023-01-13T14:59:22.998Z,2.35
2023-01-13T15:01:50.437Z,1.95
2023-01-13T15:04:28.453Z,1.95
2023-01-13T15:06:57.167Z,2.92
2023-01-13T15:09:26.402Z,1.80
2023-01-13T15:11:54.313Z,1.80
2023-01-13T15:14:25.616Z,2.13
2023-01-13T15:16:52.913Z,4.10
2023-01-13T15:19:20.267Z,1.90
2023-01-13T15:21:47.589Z,3.47
2023-01-13T15:24:15.015Z,5.05
2023-01-13T15:26:42.620Z,3.15
2023-01-13T15:29:14.066Z,2.10
2023-01-13T15:31:41.491Z,3.15
2023-01-13T15:34:09.117Z,1.70
2023-01-13T15:36:38.077Z,4.25
2023-01-13T15:39:05.483Z,1.95
2023-01-13T15:41:51.296Z,12.60
2023-01-13T15:44:37.372Z,44.28
2023-01-13T15:47:07.050Z,55.88
2023-01-13T15:49:39.994Z,5.55
2023-01-13T15:52:24.015Z,3.20
2023-01-13T15:54:51.928Z,1.67
2023-01-13T15:57:26.789Z,1.98
2023-01-13T15:59:57.307Z,1.48
2023-01-13T16:02:25.380Z,3.72
2023-01-13T16:04:54.066Z,2.40
2023-01-13T16:07:22.812Z,2.28
2023-01-13T16:09:50.287Z,3.25
2023-01-13T16:12:17.826Z,4.28
2023-01-13T16:14:45.138Z,2.00
2023-01-13T16:17:16.914Z,2.78
2023-01-13T16:19:44.971Z,2.05
2023-01-13T16:22:14.307Z,2.72
2023-01-13T16:24:42.876Z,2.80
2023-01-13T16:27:14.871Z,3.08
2023-01-13T16:29:42.603Z,1.65
2023-01-13T16:32:09.985Z,1.85
2023-01-13T16:34:37.432Z,4.10
2023-01-13T16:37:04.980Z,2.88
2023-01-13T16:39:32.352Z,4.18
2023-01-13T16:41:59.647Z,3.28
2023-01-13T16:44:27.100Z,4.47
2023-01-13T16:46:54.550Z,3.80
2023-01-13T16:49:21.863Z,4.10
2023-01-13T16:51:49.171Z,4.43
2023-01-13T16:54:16.495Z,6.55
2023-01-13T16:56:44.427Z,5.00
2023-01-13T16:59:14.240Z,6.28
2023-01-13T17:01:43.081Z,6.28
2023-01-13T17:04:20.900Z,6.93
2023-01-13T17:07:03.685Z,5.10
2023-01-13T17:09:31.229Z,7.30
2023-01-13T17:11:59.117Z,9.70
2023-01-13T17:14:26.716Z,9.00
2023-01-13T17:16:55.195Z,10.48
2023-01-13T17:19:23.181Z,11.77
2023-01-13T17:21:53.774Z,7.28
2023-01-13T17:24:21.693Z,7.70
2023-01-13T17:26:52.184Z,6.00
2023-01-13T17:29:22.164Z,9.15
2023-01-13T17:31:52.988Z,10.38
2023-01-13T17:34:22.145Z,18.02
2023-01-13T17:36:49.568Z,26.50
2023-01-13T17:39:18.356Z,27.77
2023-01-13T17:41:46.434Z,25.13
2023-01-13T17:44:14.918Z,7.60
2023-01-13T17:46:42.646Z,4.85
2023-01-13T17:49:11.398Z,5.13
2023-01-13T17:51:39.027Z,6.28
2023-01-13T17:54:06.379Z,2.22
2023-01-13T17:56:33.846Z,3.97
2023-01-13T17:59:01.158Z,7.55
2023-01-13T18:01:32.817Z,5.32
2023-01-13T18:04:00.975Z,6.85
2023-01-13T18:06:28.494Z,11.32
2023-01-13T18:08:55.916Z,5.32
2023-01-13T18:11:23.313Z,6.68
2023-01-13T18:13:51.971Z,3.90
2023-01-13T18:16:20.219Z,3.63
2023-01-13T18:18:49.371Z,3.63
2023-01-13T18:21:45.772Z,3.15
2023-01-13T18:24:33.431Z,8.07
2023-01-13T18:27:19.731Z,7.10
2023-01-13T18:29:47.403Z,3.70
2023-01-13T18:32:15.010Z,6.05
2023-01-13T18:34:42.732Z,7.05
2023-01-13T18:37:11.350Z,9.20
2023-01-13T18:39:38.697Z,9.27
2023-01-13T18:42:25.428Z,13.45
2023-01-13T18:44:53.305Z,16.70
2023-01-13T18:47:20.697Z,15.88
2023-01-13T18:49:48.839Z,13.88
2023-01-13T18:52:16.122Z,16.27
2023-01-13T18:54:43.915Z,17.58
2023-01-13T18:57:11.471Z,17.08
2023-01-13T18:59:38.898Z,14.80
2023-01-13T19:02:11.095Z,14.15
2023-01-13T19:08:39.412Z,21.33
2023-01-13T19:11:59.915Z,22.58
2023-01-13T19:22:08.896Z,19.27
2023-01-13T19:49:19.297Z,10.43
2023-01-13T19:56:13.767Z,9.70
2023-01-13T19:59:24.588Z,10.32
2023-01-13T20:02:36.766Z,12.90
2023-01-13T20:09:10.531Z,12.88
2023-01-13T20:33:56.712Z,13.77
2023-01-13T20:36:10.342Z,10.10
2023-01-13T20:46:41.928Z,6.50
2023-01-13T20:49:11.190Z,6.43
2023-01-13T20:51:41.121Z,7.90
2023-01-13T20:54:22.127Z,5.38
2023-01-13T20:56:52.897Z,5.57
2023-01-13T20:59:24.068Z,6.45
2023-01-13T21:01:51.572Z,7.57
2023-01-13T21:04:22.393Z,5.25
2023-01-13T21:06:50.871Z,6.07
2023-01-13T21:09:18.269Z,7.63
2023-01-13T21:12:04.283Z,7.15
2023-01-13T21:14:50.355Z,9.60
2023-01-13T21:17:37.703Z,3.20
2023-01-13T21:20:10.078Z,5.03
2023-01-13T21:22:39.043Z,5.72
2023-01-13T21:25:06.867Z,10.00
2023-01-13T21:27:34.720Z,8.02
2023-01-13T21:33:13.450Z,11.35
2023-01-13T21:35:40.886Z,7.90
2023-01-13T21:38:08.395Z,7.25
2023-01-13T21:40:35.831Z,8.43
2023-01-13T21:43:22.371Z,6.45
2023-01-13T21:46:13.024Z,9.48
2023-01-13T21:48:40.482Z,6.95
2023-01-13T21:51:08.021Z,5.05
2023-01-13T21:53:36.269Z,3.90
2023-01-13T21:56:10.370Z,7.05
2023-01-13T21:58:39.085Z,8.93
2023-01-13T22:01:06.711Z,8.35
2023-01-13T22:03:57.319Z,6.70
2023-01-13T22:06:26.103Z,5.10
2023-01-13T22:08:56.223Z,8.32
2023-01-13T22:11:23.633Z,8.07
2023-01-13T22:14:07.550Z,9.27
2023-01-13T22:16:42.328Z,6.20
2023-01-13T22:19:10.427Z,5.32
2023-01-13T22:21:38.980Z,8.13
2023-01-13T22:24:07.267Z,6.30
2023-01-13T22:26:34.854Z,3.65
2023-01-13T22:29:03.012Z,3.58
2023-01-13T22:31:31.954Z,5.18
2023-01-13T22:33:59.901Z,3.22
2023-01-13T22:36:27.440Z,3.72
2023-01-13T22:39:00.320Z,2.25
2023-01-13T22:41:28.163Z,3.88
2023-01-13T22:43:56.201Z,3.85
2023-01-13T22:46:23.633Z,1.98
2023-01-13T22:48:53.786Z,2.33
2023-01-13T22:51:22.849Z,3.53
2023-01-13T22:53:51.119Z,2.35
2023-01-13T22:56:20.983Z,3.00
2023-01-13T22:58:49.137Z,3.92
2023-01-13T23:01:17.598Z,3.83
2023-01-13T23:03:46.322Z,1.52
2023-01-13T23:06:13.813Z,2.33
2023-01-13T23:08:41.148Z,2.25
2023-01-13T23:11:09.740Z,1.75
2023-01-13T23:13:42.243Z,3.97
2023-01-13T23:16:11.585Z,4.22
2023-01-13T23:18:39.150Z,7.72
2023-01-13T23:21:11.269Z,3.85
2023-01-13T23:23:38.593Z,3.67
2023-01-13T23:26:06.926Z,2.17
2023-01-13T23:28:40.702Z,2.30
2023-01-13T23:31:20.508Z,3.35
2023-01-13T23:33:48.471Z,5.20
2023-01-13T23:36:18.010Z,5.28
2023-01-13T23:41:16.629Z,5.85
2023-01-13T23:43:44.254Z,3.70
2023-01-13T23:46:12.891Z,6.28
2023-01-13T23:48:40.335Z,3.30
2023-01-13T23:51:09.164Z,3.95
2023-01-13T23:53:40.229Z,5.60
2023-01-13T23:56:09.136Z,2.70
2023-01-13T23:58:36.454Z,2.95
